sensor_id;sensor_type;location;lat;lon;timestamp;P1;durP1;ratioP1;P2;durP2;ratioP2
6251;SDS011;3159;52.414;9.784;2023-07-31T00:00:14;3.60;;;1.93;;
6251;SDS011;3159;52.414;9.784;2023-07-31T00:02:41;3.23;;;1.93;;
6251;SDS011;3159;52.414;9.784;2023-07-31T00:05:09;3.73;;;1.57;;
6251;SDS011;3159;52.414;9.784;2023-07-31T00:07:36;3.20;;;1.73;;
6251;SDS011;3159;52.414;9.784;2023-07-31T00:10:03;3.70;;;1.90;;
6251;SDS011;3159;52.414;9.784;2023-07-31T00:12:30;4.17;;;1.90;;
6251;SDS011;3159;52.414;9.784;2023-07-31T00:14:56;3.10;;;1.93;;
6251;SDS011;3159;52.414;9.784;2023-07-31T00:17:23;2.63;;;1.77;;
6251;SDS011;3159;52.414;9.784;2023-07-31T00:19:50;4.20;;;1.57;;
6251;SDS011;3159;52.414;9.784;2023-07-31T00:22:18;1.73;;;1.60;;
6251;SDS011;3159;52.414;9.784;2023-07-31T00:24:45;3.23;;;1.87;;
6251;SDS011;3159;52.414;9.784;2023-07-31T00:27:12;4.67;;;1.90;;
6251;SDS011;3159;52.414;9.784;2023-07-31T00:29:39;3.13;;;1.83;;
6251;SDS011;3159;52.414;9.784;2023-07-31T00:32:06;3.87;;;1.83;;
6251;SDS011;3159;52.414;9.784;2023-07-31T00:34:33;4.27;;;1.80;;
6251;SDS011;3159;52.414;9.784;2023-07-31T00:37:00;2.17;;;1.80;;
6251;SDS011;3159;52.414;9.784;2023-07-31T00:39:29;2.73;;;1.77;;
6251;SDS011;3159;52.414;9.784;2023-07-31T00:41:56;3.60;;;1.90;;
6251;SDS011;3159;52.414;9.784;2023-07-31T00:44:23;3.20;;;2.00;;
6251;SDS011;3159;52.414;9.784;2023-07-31T00:46:50;1.97;;;1.77;;
6251;SDS011;3159;52.414;9.784;2023-07-31T00:49:17;4.63;;;1.80;;
6251;SDS011;3159;52.414;9.784;2023-07-31T00:51:44;3.50;;;1.97;;
6251;SDS011;3159;52.414;9.784;2023-07-31T00:54:11;3.33;;;1.40;;
6251;SDS011;3159;52.414;9.784;2023-07-31T00:56:39;2.20;;;1.63;;
6251;SDS011;3159;52.414;9.784;2023-07-31T00:59:07;3.77;;;1.80;;
6251;SDS011;3159;52.414;9.784;2023-07-31T01:01:34;2.67;;;1.67;;
6251;SDS011;3159;52.414;9.784;2023-07-31T01:04:01;3.47;;;1.80;;
6251;SDS011;3159;52.414;9.784;2023-07-31T01:06:30;2.87;;;1.60;;
6251;SDS011;3159;52.414;9.784;2023-07-31T01:09:03;2.33;;;1.83;;
6251;SDS011;3159;52.414;9.784;2023-07-31T01:11:35;2.20;;;1.80;;
6251;SDS011;3159;52.414;9.784;2023-07-31T01:14:06;2.53;;;1.40;;
6251;SDS011;3159;52.414;9.784;2023-07-31T01:16:33;3.27;;;1.53;;
6251;SDS011;3159;52.414;9.784;2023-07-31T01:18:59;3.47;;;1.70;;
6251;SDS011;3159;52.414;9.784;2023-07-31T01:21:30;2.93;;;1.53;;
6251;SDS011;3159;52.414;9.784;2023-07-31T01:24:20;3.10;;;1.53;;
6251;SDS011;3159;52.414;9.784;2023-07-31T01:26:51;3.13;;;1.50;;
6251;SDS011;3159;52.414;9.784;2023-07-31T01:29:23;2.50;;;1.53;;
6251;SDS011;3159;52.414;9.784;2023-07-31T01:31:59;1.93;;;1.10;;
6251;SDS011;3159;52.414;9.784;2023-07-31T01:34:29;3.93;;;1.30;;
6251;SDS011;3159;52.414;9.784;2023-07-31T01:36:57;3.30;;;1.57;;
6251;SDS011;3159;52.414;9.784;2023-07-31T01:39:24;2.40;;;1.30;;
6251;SDS011;3159;52.414;9.784;2023-07-31T01:41:52;1.70;;;1.17;;
6251;SDS011;3159;52.414;9.784;2023-07-31T01:44:19;2.53;;;1.30;;
6251;SDS011;3159;52.414;9.784;2023-07-31T01:46:46;1.77;;;1.23;;
6251;SDS011;3159;52.414;9.784;2023-07-31T01:49:12;2.23;;;1.20;;
6251;SDS011;3159;52.414;9.784;2023-07-31T01:51:39;1.37;;;1.00;;
6251;SDS011;3159;52.414;9.784;2023-07-31T01:54:06;5.03;;;1.53;;
6251;SDS011;3159;52.414;9.784;2023-07-31T01:56:33;2.53;;;1.20;;
6251;SDS011;3159;52.414;9.784;2023-07-31T01:59:01;1.17;;;1.03;;
6251;SDS011;3159;52.414;9.784;2023-07-31T02:01:28;2.40;;;1.23;;
6251;SDS011;3159;52.414;9.784;2023-07-31T02:03:55;1.07;;;0.97;;
6251;SDS011;3159;52.414;9.784;2023-07-31T02:06:22;2.00;;;1.37;;
6251;SDS011;3159;52.414;9.784;2023-07-31T02:08:52;1.27;;;1.00;;
6251;SDS011;3159;52.414;9.784;2023-07-31T02:11:19;1.83;;;1.27;;
6251;SDS011;3159;52.414;9.784;2023-07-31T02:13:46;1.57;;;1.30;;
6251;SDS011;3159;52.414;9.784;2023-07-31T02:16:14;1.53;;;1.07;;
6251;SDS011;3159;52.414;9.784;2023-07-31T02:18:41;1.83;;;1.00;;
6251;SDS011;3159;52.414;9.784;2023-07-31T02:21:07;1.00;;;0.90;;
6251;SDS011;3159;52.414;9.784;2023-07-31T02:23:34;1.27;;;1.13;;
6251;SDS011;3159;52.414;9.784;2023-07-31T02:26:01;1.60;;;1.00;;
6251;SDS011;3159;52.414;9.784;2023-07-31T02:28:33;2.10;;;1.10;;
6251;SDS011;3159;52.414;9.784;2023-07-31T02:31:00;1.90;;;1.00;;
6251;SDS011;3159;52.414;9.784;2023-07-31T02:33:28;2.60;;;0.90;;
6251;SDS011;3159;52.414;9.784;2023-07-31T02:35:55;2.40;;;0.93;;
6251;SDS011;3159;52.414;9.784;2023-07-31T02:38:22;0.50;;;0.50;;
6251;SDS011;3159;52.414;9.784;2023-07-31T02:40:49;2.23;;;0.70;;
6251;SDS011;3159;52.414;9.784;2023-07-31T02:43:16;1.10;;;0.73;;
6251;SDS011;3159;52.414;9.784;2023-07-31T02:45:42;0.90;;;0.70;;
6251;SDS011;3159;52.414;9.784;2023-07-31T02:48:09;1.67;;;0.87;;
6251;SDS011;3159;52.414;9.784;2023-07-31T02:50:37;1.43;;;0.77;;
6251;SDS011;3159;52.414;9.784;2023-07-31T02:53:04;1.77;;;0.80;;
6251;SDS011;3159;52.414;9.784;2023-07-31T02:55:31;0.77;;;0.60;;
6251;SDS011;3159;52.414;9.784;2023-07-31T02:57:58;1.73;;;0.87;;
6251;SDS011;3159;52.414;9.784;2023-07-31T03:00:25;0.93;;;0.70;;
6251;SDS011;3159;52.414;9.784;2023-07-31T03:02:52;1.57;;;0.67;;
6251;SDS011;3159;52.414;9.784;2023-07-31T03:05:18;1.07;;;0.77;;
6251;SDS011;3159;52.414;9.784;2023-07-31T03:07:47;0.67;;;0.60;;
6251;SDS011;3159;52.414;9.784;2023-07-31T03:10:15;1.30;;;0.80;;
6251;SDS011;3159;52.414;9.784;2023-07-31T03:12:43;0.90;;;0.67;;
6251;SDS011;3159;52.414;9.784;2023-07-31T03:15:13;1.70;;;0.90;;
6251;SDS011;3159;52.414;9.784;2023-07-31T03:17:39;1.00;;;0.60;;
6251;SDS011;3159;52.414;9.784;2023-07-31T03:20:06;1.07;;;0.60;;
6251;SDS011;3159;52.414;9.784;2023-07-31T03:22:34;0.60;;;0.50;;
6251;SDS011;3159;52.414;9.784;2023-07-31T03:25:02;1.03;;;0.77;;
6251;SDS011;3159;52.414;9.784;2023-07-31T03:27:30;3.07;;;0.87;;
6251;SDS011;3159;52.414;9.784;2023-07-31T03:29:57;0.40;;;0.40;;
6251;SDS011;3159;52.414;9.784;2023-07-31T03:32:24;1.33;;;0.60;;
6251;SDS011;3159;52.414;9.784;2023-07-31T03:34:51;0.50;;;0.50;;
6251;SDS011;3159;52.414;9.784;2023-07-31T03:37:20;0.93;;;0.60;;
6251;SDS011;3159;52.414;9.784;2023-07-31T03:39:49;1.37;;;0.90;;
6251;SDS011;3159;52.414;9.784;2023-07-31T03:42:17;0.80;;;0.70;;
6251;SDS011;3159;52.414;9.784;2023-07-31T03:44:44;1.07;;;0.73;;
6251;SDS011;3159;52.414;9.784;2023-07-31T03:47:11;0.60;;;0.60;;
6251;SDS011;3159;52.414;9.784;2023-07-31T03:49:38;1.77;;;0.53;;
6251;SDS011;3159;52.414;9.784;2023-07-31T03:52:05;2.87;;;0.70;;
6251;SDS011;3159;52.414;9.784;2023-07-31T03:54:32;1.10;;;1.00;;
6251;SDS011;3159;52.414;9.784;2023-07-31T03:56:59;1.70;;;0.90;;
6251;SDS011;3159;52.414;9.784;2023-07-31T03:59:27;1.03;;;0.90;;
6251;SDS011;3159;52.414;9.784;2023-07-31T04:01:54;1.07;;;0.70;;
6251;SDS011;3159;52.414;9.784;2023-07-31T04:04:21;0.93;;;0.83;;
6251;SDS011;3159;52.414;9.784;2023-07-31T04:06:48;0.70;;;0.70;;
6251;SDS011;3159;52.414;9.784;2023-07-31T04:09:15;0.73;;;0.73;;
6251;SDS011;3159;52.414;9.784;2023-07-31T04:11:41;1.63;;;1.00;;
6251;SDS011;3159;52.414;9.784;2023-07-31T04:14:08;2.20;;;0.80;;
6251;SDS011;3159;52.414;9.784;2023-07-31T04:16:36;2.03;;;0.90;;
6251;SDS011;3159;52.414;9.784;2023-07-31T04:19:03;1.17;;;0.80;;
6251;SDS011;3159;52.414;9.784;2023-07-31T04:21:30;1.00;;;0.80;;
6251;SDS011;3159;52.414;9.784;2023-07-31T04:23:57;0.90;;;0.80;;
6251;SDS011;3159;52.414;9.784;2023-07-31T04:26:24;1.37;;;0.97;;
6251;SDS011;3159;52.414;9.784;2023-07-31T04:28:50;2.13;;;1.13;;
6251;SDS011;3159;52.414;9.784;2023-07-31T04:31:20;3.17;;;0.87;;
6251;SDS011;3159;52.414;9.784;2023-07-31T04:33:48;0.90;;;0.90;;
6251;SDS011;3159;52.414;9.784;2023-07-31T04:36:15;0.70;;;0.70;;
6251;SDS011;3159;52.414;9.784;2023-07-31T04:38:42;2.03;;;0.93;;
6251;SDS011;3159;52.414;9.784;2023-07-31T04:41:09;1.20;;;1.10;;
6251;SDS011;3159;52.414;9.784;2023-07-31T04:43:36;2.87;;;0.80;;
6251;SDS011;3159;52.414;9.784;2023-07-31T04:46:04;1.43;;;0.90;;
6251;SDS011;3159;52.414;9.784;2023-07-31T04:48:31;1.37;;;0.80;;
6251;SDS011;3159;52.414;9.784;2023-07-31T04:50:59;1.23;;;0.90;;
6251;SDS011;3159;52.414;9.784;2023-07-31T04:53:26;2.00;;;0.90;;
6251;SDS011;3159;52.414;9.784;2023-07-31T04:55:53;1.67;;;1.00;;
6251;SDS011;3159;52.414;9.784;2023-07-31T04:58:19;1.93;;;0.90;;
6251;SDS011;3159;52.414;9.784;2023-07-31T05:00:46;1.50;;;0.90;;
6251;SDS011;3159;52.414;9.784;2023-07-31T05:03:13;1.73;;;0.70;;
6251;SDS011;3159;52.414;9.784;2023-07-31T05:05:40;1.23;;;0.93;;
6251;SDS011;3159;52.414;9.784;2023-07-31T05:08:08;1.47;;;1.10;;
6251;SDS011;3159;52.414;9.784;2023-07-31T05:10:35;1.40;;;0.87;;
6251;SDS011;3159;52.414;9.784;2023-07-31T05:13:02;1.10;;;0.90;;
6251;SDS011;3159;52.414;9.784;2023-07-31T05:15:29;1.57;;;0.90;;
6251;SDS011;3159;52.414;9.784;2023-07-31T05:17:56;1.10;;;1.00;;
6251;SDS011;3159;52.414;9.784;2023-07-31T05:20:22;1.30;;;0.67;;
6251;SDS011;3159;52.414;9.784;2023-07-31T05:22:50;0.90;;;0.70;;
6251;SDS011;3159;52.414;9.784;2023-07-31T05:25:18;1.03;;;0.60;;
6251;SDS011;3159;52.414;9.784;2023-07-31T05:27:45;0.80;;;0.50;;
6251;SDS011;3159;52.414;9.784;2023-07-31T05:30:12;0.70;;;0.60;;
6251;SDS011;3159;52.414;9.784;2023-07-31T05:32:39;0.70;;;0.60;;
6251;SDS011;3159;52.414;9.784;2023-07-31T05:35:06;0.67;;;0.60;;
6251;SDS011;3159;52.414;9.784;2023-07-31T05:37:33;1.20;;;0.70;;
6251;SDS011;3159;52.414;9.784;2023-07-31T05:40:00;2.87;;;0.90;;
6251;SDS011;3159;52.414;9.784;2023-07-31T05:42:28;1.30;;;0.90;;
6251;SDS011;3159;52.414;9.784;2023-07-31T05:44:55;0.63;;;0.63;;
6251;SDS011;3159;52.414;9.784;2023-07-31T05:47:21;1.27;;;0.90;;
6251;SDS011;3159;52.414;9.784;2023-07-31T05:49:48;4.00;;;1.00;;
6251;SDS011;3159;52.414;9.784;2023-07-31T05:52:17;1.57;;;1.10;;
6251;SDS011;3159;52.414;9.784;2023-07-31T05:54:44;2.10;;;1.47;;
6251;SDS011;3159;52.414;9.784;2023-07-31T05:57:12;1.73;;;1.50;;
6251;SDS011;3159;52.414;9.784;2023-07-31T05:59:40;2.27;;;1.80;;
6251;SDS011;3159;52.414;9.784;2023-07-31T06:02:07;2.23;;;2.03;;
6251;SDS011;3159;52.414;9.784;2023-07-31T06:04:34;2.30;;;2.10;;
6251;SDS011;3159;52.414;9.784;2023-07-31T06:07:04;3.10;;;2.40;;
6251;SDS011;3159;52.414;9.784;2023-07-31T06:09:44;4.30;;;2.63;;
6251;SDS011;3159;52.414;9.784;2023-07-31T06:12:11;5.17;;;3.50;;
6251;SDS011;3159;52.414;9.784;2023-07-31T06:14:37;4.00;;;3.40;;
6251;SDS011;3159;52.414;9.784;2023-07-31T06:17:05;5.63;;;3.83;;
6251;SDS011;3159;52.414;9.784;2023-07-31T06:19:32;4.87;;;4.13;;
6251;SDS011;3159;52.414;9.784;2023-07-31T06:21:59;5.03;;;4.53;;
6251;SDS011;3159;52.414;9.784;2023-07-31T06:24:26;6.10;;;5.03;;
6251;SDS011;3159;52.414;9.784;2023-07-31T06:26:54;7.70;;;5.17;;
6251;SDS011;3159;52.414;9.784;2023-07-31T06:29:22;6.77;;;5.07;;
6251;SDS011;3159;52.414;9.784;2023-07-31T06:31:50;6.30;;;5.17;;
6251;SDS011;3159;52.414;9.784;2023-07-31T06:34:17;8.80;;;5.10;;
6251;SDS011;3159;52.414;9.784;2023-07-31T06:36:44;6.43;;;5.77;;
6251;SDS011;3159;52.414;9.784;2023-07-31T06:39:11;7.73;;;6.13;;
6251;SDS011;3159;52.414;9.784;2023-07-31T06:41:38;7.47;;;5.53;;
6251;SDS011;3159;52.414;9.784;2023-07-31T06:44:05;8.30;;;5.70;;
6251;SDS011;3159;52.414;9.784;2023-07-31T06:46:32;7.27;;;5.60;;
6251;SDS011;3159;52.414;9.784;2023-07-31T06:49:00;9.67;;;5.63;;
6251;SDS011;3159;52.414;9.784;2023-07-31T06:51:27;6.17;;;5.50;;
6251;SDS011;3159;52.414;9.784;2023-07-31T06:53:56;8.07;;;6.03;;
6251;SDS011;3159;52.414;9.784;2023-07-31T06:56:23;8.40;;;6.07;;
6251;SDS011;3159;52.414;9.784;2023-07-31T06:58:51;7.57;;;5.60;;
6251;SDS011;3159;52.414;9.784;2023-07-31T07:01:18;7.27;;;6.07;;
6251;SDS011;3159;52.414;9.784;2023-07-31T07:03:45;8.80;;;6.07;;
6251;SDS011;3159;52.414;9.784;2023-07-31T07:06:13;9.17;;;5.80;;
6251;SDS011;3159;52.414;9.784;2023-07-31T07:08:40;10.77;;;6.50;;
6251;SDS011;3159;52.414;9.784;2023-07-31T07:11:07;8.70;;;6.00;;
6251;SDS011;3159;52.414;9.784;2023-07-31T07:13:33;10.27;;;6.80;;
6251;SDS011;3159;52.414;9.784;2023-07-31T07:16:00;8.40;;;6.90;;
6251;SDS011;3159;52.414;9.784;2023-07-31T07:18:27;9.30;;;6.33;;
6251;SDS011;3159;52.414;9.784;2023-07-31T07:20:54;11.43;;;6.53;;
6251;SDS011;3159;52.414;9.784;2023-07-31T07:23:24;11.80;;;7.73;;
6251;SDS011;3159;52.414;9.784;2023-07-31T07:25:51;10.63;;;7.07;;
6251;SDS011;3159;52.414;9.784;2023-07-31T07:28:18;13.27;;;8.33;;
6251;SDS011;3159;52.414;9.784;2023-07-31T07:30:45;9.13;;;7.30;;
6251;SDS011;3159;52.414;9.784;2023-07-31T07:33:16;11.70;;;7.97;;
6251;SDS011;3159;52.414;9.784;2023-07-31T07:35:43;12.60;;;7.70;;
6251;SDS011;3159;52.414;9.784;2023-07-31T07:38:10;17.30;;;8.70;;
6251;SDS011;3159;52.414;9.784;2023-07-31T07:40:39;12.17;;;7.97;;
6251;SDS011;3159;52.414;9.784;2023-07-31T07:43:06;16.97;;;8.70;;
6251;SDS011;3159;52.414;9.784;2023-07-31T07:45:33;12.73;;;8.57;;
6251;SDS011;3159;52.414;9.784;2023-07-31T07:48:00;13.20;;;8.53;;
6251;SDS011;3159;52.414;9.784;2023-07-31T07:50:27;12.73;;;8.67;;
6251;SDS011;3159;52.414;9.784;2023-07-31T07:52:54;12.17;;;8.50;;
6251;SDS011;3159;52.414;9.784;2023-07-31T07:55:21;12.33;;;8.53;;
6251;SDS011;3159;52.414;9.784;2023-07-31T07:57:49;11.10;;;8.37;;
6251;SDS011;3159;52.414;9.784;2023-07-31T08:00:16;13.50;;;8.40;;
6251;SDS011;3159;52.414;9.784;2023-07-31T08:02:43;14.17;;;9.27;;
6251;SDS011;3159;52.414;9.784;2023-07-31T08:05:10;13.70;;;8.00;;
6251;SDS011;3159;52.414;9.784;2023-07-31T08:07:38;17.23;;;8.97;;
6251;SDS011;3159;52.414;9.784;2023-07-31T08:10:05;13.67;;;8.50;;
6251;SDS011;3159;52.414;9.784;2023-07-31T08:12:32;12.37;;;8.00;;
6251;SDS011;3159;52.414;9.784;2023-07-31T08:15:00;12.97;;;7.87;;
6251;SDS011;3159;52.414;9.784;2023-07-31T08:17:27;11.97;;;7.13;;
6251;SDS011;3159;52.414;9.784;2023-07-31T08:19:54;10.23;;;7.47;;
6251;SDS011;3159;52.414;9.784;2023-07-31T08:22:23;12.13;;;7.57;;
6251;SDS011;3159;52.414;9.784;2023-07-31T08:24:50;12.43;;;7.23;;
6251;SDS011;3159;52.414;9.784;2023-07-31T08:27:17;12.17;;;6.77;;
6251;SDS011;3159;52.414;9.784;2023-07-31T08:29:44;11.73;;;6.53;;
6251;SDS011;3159;52.414;9.784;2023-07-31T08:32:12;10.73;;;6.70;;
6251;SDS011;3159;52.414;9.784;2023-07-31T08:34:39;10.47;;;6.10;;
6251;SDS011;3159;52.414;9.784;2023-07-31T08:37:06;12.00;;;6.13;;
6251;SDS011;3159;52.414;9.784;2023-07-31T08:39:33;12.17;;;6.23;;
6251;SDS011;3159;52.414;9.784;2023-07-31T08:42:00;9.80;;;5.37;;
6251;SDS011;3159;52.414;9.784;2023-07-31T08:44:27;12.70;;;5.97;;
6251;SDS011;3159;52.414;9.784;2023-07-31T08:46:57;10.10;;;5.40;;
6251;SDS011;3159;52.414;9.784;2023-07-31T08:49:25;10.77;;;5.63;;
6251;SDS011;3159;52.414;9.784;2023-07-31T08:51:53;9.90;;;6.10;;
6251;SDS011;3159;52.414;9.784;2023-07-31T08:54:23;11.40;;;6.10;;
6251;SDS011;3159;52.414;9.784;2023-07-31T08:56:49;9.93;;;6.03;;
6251;SDS011;3159;52.414;9.784;2023-07-31T08:59:18;9.80;;;5.83;;
6251;SDS011;3159;52.414;9.784;2023-07-31T09:01:48;11.40;;;5.40;;
6251;SDS011;3159;52.414;9.784;2023-07-31T09:04:19;8.53;;;5.50;;
6251;SDS011;3159;52.414;9.784;2023-07-31T09:06:48;11.77;;;4.97;;
6251;SDS011;3159;52.414;9.784;2023-07-31T09:09:17;9.33;;;5.53;;
6251;SDS011;3159;52.414;9.784;2023-07-31T09:11:45;7.20;;;5.43;;
6251;SDS011;3159;52.414;9.784;2023-07-31T09:14:12;14.03;;;5.80;;
6251;SDS011;3159;52.414;9.784;2023-07-31T09:16:51;9.83;;;5.30;;
6251;SDS011;3159;52.414;9.784;2023-07-31T09:19:26;11.27;;;5.60;;
6251;SDS011;3159;52.414;9.784;2023-07-31T09:21:55;6.70;;;4.73;;
6251;SDS011;3159;52.414;9.784;2023-07-31T09:24:25;11.23;;;5.40;;
6251;SDS011;3159;52.414;9.784;2023-07-31T09:26:53;7.90;;;5.10;;
6251;SDS011;3159;52.414;9.784;2023-07-31T09:29:21;8.20;;;4.80;;
6251;SDS011;3159;52.414;9.784;2023-07-31T09:31:48;6.37;;;4.27;;
6251;SDS011;3159;52.414;9.784;2023-07-31T09:34:16;6.37;;;4.40;;
6251;SDS011;3159;52.414;9.784;2023-07-31T09:36:44;6.93;;;4.80;;
6251;SDS011;3159;52.414;9.784;2023-07-31T09:39:13;7.20;;;4.80;;
6251;SDS011;3159;52.414;9.784;2023-07-31T09:41:42;8.57;;;4.37;;
6251;SDS011;3159;52.414;9.784;2023-07-31T09:44:09;5.90;;;4.30;;
6251;SDS011;3159;52.414;9.784;2023-07-31T09:46:37;6.77;;;4.10;;
6251;SDS011;3159;52.414;9.784;2023-07-31T09:49:07;4.30;;;3.67;;
6251;SDS011;3159;52.414;9.784;2023-07-31T09:51:35;7.67;;;3.70;;
6251;SDS011;3159;52.414;9.784;2023-07-31T09:54:08;5.50;;;3.37;;
6251;SDS011;3159;52.414;9.784;2023-07-31T09:56:38;6.37;;;2.83;;
6251;SDS011;3159;52.414;9.784;2023-07-31T09:59:08;4.67;;;3.17;;
6251;SDS011;3159;52.414;9.784;2023-07-31T10:01:37;5.57;;;3.17;;
6251;SDS011;3159;52.414;9.784;2023-07-31T10:04:05;3.30;;;2.70;;
6251;SDS011;3159;52.414;9.784;2023-07-31T10:06:33;3.90;;;2.47;;
6251;SDS011;3159;52.414;9.784;2023-07-31T10:09:01;3.97;;;2.60;;
6251;SDS011;3159;52.414;9.784;2023-07-31T10:11:29;7.27;;;2.70;;
6251;SDS011;3159;52.414;9.784;2023-07-31T10:14:00;4.50;;;2.77;;
6251;SDS011;3159;52.414;9.784;2023-07-31T10:16:29;3.00;;;2.13;;
6251;SDS011;3159;52.414;9.784;2023-07-31T10:18:56;3.03;;;1.90;;
6251;SDS011;3159;52.414;9.784;2023-07-31T10:21:25;2.30;;;2.10;;
6251;SDS011;3159;52.414;9.784;2023-07-31T10:23:52;2.63;;;1.83;;
6251;SDS011;3159;52.414;9.784;2023-07-31T10:26:21;3.90;;;2.30;;
6251;SDS011;3159;52.414;9.784;2023-07-31T10:28:51;2.77;;;2.00;;
6251;SDS011;3159;52.414;9.784;2023-07-31T10:31:21;3.03;;;1.90;;
6251;SDS011;3159;52.414;9.784;2023-07-31T10:33:48;2.40;;;2.00;;
6251;SDS011;3159;52.414;9.784;2023-07-31T10:36:17;2.17;;;1.97;;
6251;SDS011;3159;52.414;9.784;2023-07-31T10:38:45;2.63;;;1.90;;
6251;SDS011;3159;52.414;9.784;2023-07-31T10:41:12;2.17;;;1.70;;
6251;SDS011;3159;52.414;9.784;2023-07-31T10:43:39;4.50;;;2.00;;
6251;SDS011;3159;52.414;9.784;2023-07-31T10:46:06;5.57;;;1.93;;
6251;SDS011;3159;52.414;9.784;2023-07-31T10:48:36;2.20;;;2.00;;
6251;SDS011;3159;52.414;9.784;2023-07-31T10:51:06;2.03;;;1.77;;
6251;SDS011;3159;52.414;9.784;2023-07-31T10:53:35;2.20;;;2.00;;
6251;SDS011;3159;52.414;9.784;2023-07-31T10:56:03;2.90;;;1.80;;
6251;SDS011;3159;52.414;9.784;2023-07-31T10:58:31;2.70;;;1.90;;
6251;SDS011;3159;52.414;9.784;2023-07-31T11:00:59;3.00;;;2.03;;
6251;SDS011;3159;52.414;9.784;2023-07-31T11:03:41;4.50;;;2.10;;
6251;SDS011;3159;52.414;9.784;2023-07-31T11:06:09;2.97;;;1.83;;
6251;SDS011;3159;52.414;9.784;2023-07-31T11:08:41;2.53;;;1.97;;
6251;SDS011;3159;52.414;9.784;2023-07-31T11:11:09;3.97;;;1.97;;
6251;SDS011;3159;52.414;9.784;2023-07-31T11:13:40;2.23;;;2.03;;
6251;SDS011;3159;52.414;9.784;2023-07-31T11:16:09;3.57;;;2.17;;
6251;SDS011;3159;52.414;9.784;2023-07-31T11:18:38;2.47;;;2.00;;
6251;SDS011;3159;52.414;9.784;2023-07-31T11:21:07;2.23;;;1.97;;
6251;SDS011;3159;52.414;9.784;2023-07-31T11:23:36;2.57;;;2.10;;
6251;SDS011;3159;52.414;9.784;2023-07-31T11:26:05;2.37;;;1.87;;
6251;SDS011;3159;52.414;9.784;2023-07-31T11:28:32;2.70;;;2.27;;
6251;SDS011;3159;52.414;9.784;2023-07-31T11:31:00;2.00;;;1.80;;
6251;SDS011;3159;52.414;9.784;2023-07-31T11:33:27;3.83;;;1.93;;
6251;SDS011;3159;52.414;9.784;2023-07-31T11:35:54;2.60;;;1.70;;
6251;SDS011;3159;52.414;9.784;2023-07-31T11:38:23;3.80;;;2.03;;
6251;SDS011;3159;52.414;9.784;2023-07-31T11:40:51;2.23;;;1.80;;
6251;SDS011;3159;52.414;9.784;2023-07-31T11:43:18;2.60;;;2.00;;
6251;SDS011;3159;52.414;9.784;2023-07-31T11:45:47;2.87;;;1.90;;
6251;SDS011;3159;52.414;9.784;2023-07-31T11:48:21;2.57;;;1.80;;
6251;SDS011;3159;52.414;9.784;2023-07-31T11:50:49;3.77;;;2.10;;
6251;SDS011;3159;52.414;9.784;2023-07-31T11:53:17;4.07;;;1.90;;
6251;SDS011;3159;52.414;9.784;2023-07-31T11:55:48;2.83;;;2.20;;
6251;SDS011;3159;52.414;9.784;2023-07-31T11:58:16;3.50;;;2.33;;
6251;SDS011;3159;52.414;9.784;2023-07-31T12:00:45;2.60;;;1.90;;
6251;SDS011;3159;52.414;9.784;2023-07-31T12:03:12;2.87;;;1.97;;
6251;SDS011;3159;52.414;9.784;2023-07-31T12:05:39;3.83;;;1.77;;
6251;SDS011;3159;52.414;9.784;2023-07-31T12:08:09;1.80;;;1.60;;
6251;SDS011;3159;52.414;9.784;2023-07-31T12:10:37;2.30;;;2.00;;
6251;SDS011;3159;52.414;9.784;2023-07-31T12:13:07;2.53;;;1.93;;
6251;SDS011;3159;52.414;9.784;2023-07-31T12:15:38;3.57;;;2.00;;
6251;SDS011;3159;52.414;9.784;2023-07-31T12:18:07;2.53;;;1.70;;
6251;SDS011;3159;52.414;9.784;2023-07-31T12:20:39;2.77;;;1.87;;
6251;SDS011;3159;52.414;9.784;2023-07-31T12:23:12;3.57;;;2.20;;
6251;SDS011;3159;52.414;9.784;2023-07-31T12:25:40;2.77;;;1.87;;
6251;SDS011;3159;52.414;9.784;2023-07-31T12:28:08;3.33;;;1.80;;
6251;SDS011;3159;52.414;9.784;2023-07-31T12:30:37;2.30;;;1.73;;
6251;SDS011;3159;52.414;9.784;2023-07-31T12:33:06;2.13;;;1.70;;
6251;SDS011;3159;52.414;9.784;2023-07-31T12:35:38;1.50;;;1.40;;
6251;SDS011;3159;52.414;9.784;2023-07-31T12:38:07;1.57;;;1.43;;
6251;SDS011;3159;52.414;9.784;2023-07-31T12:40:36;3.23;;;1.40;;
6251;SDS011;3159;52.414;9.784;2023-07-31T12:43:04;1.83;;;1.30;;
6251;SDS011;3159;52.414;9.784;2023-07-31T12:45:33;2.63;;;1.33;;
6251;SDS011;3159;52.414;9.784;2023-07-31T12:48:00;1.67;;;1.37;;
6251;SDS011;3159;52.414;9.784;2023-07-31T12:50:28;2.00;;;1.30;;
6251;SDS011;3159;52.414;9.784;2023-07-31T12:52:54;3.40;;;1.50;;
6251;SDS011;3159;52.414;9.784;2023-07-31T12:55:22;2.00;;;1.40;;
6251;SDS011;3159;52.414;9.784;2023-07-31T12:57:49;2.17;;;1.40;;
6251;SDS011;3159;52.414;9.784;2023-07-31T13:00:16;1.27;;;1.17;;
6251;SDS011;3159;52.414;9.784;2023-07-31T13:02:45;1.70;;;0.97;;
6251;SDS011;3159;52.414;9.784;2023-07-31T13:05:12;0.90;;;0.70;;
6251;SDS011;3159;52.414;9.784;2023-07-31T13:07:39;1.70;;;0.83;;
6251;SDS011;3159;52.414;9.784;2023-07-31T13:10:06;0.93;;;0.80;;
6251;SDS011;3159;52.414;9.784;2023-07-31T13:12:34;2.73;;;0.90;;
6251;SDS011;3159;52.414;9.784;2023-07-31T13:15:01;0.83;;;0.70;;
6251;SDS011;3159;52.414;9.784;2023-07-31T13:17:27;0.63;;;0.63;;
6251;SDS011;3159;52.414;9.784;2023-07-31T13:19:56;0.70;;;0.70;;
6251;SDS011;3159;52.414;9.784;2023-07-31T13:22:23;0.50;;;0.50;;
6251;SDS011;3159;52.414;9.784;2023-07-31T13:24:50;0.70;;;0.60;;
6251;SDS011;3159;52.414;9.784;2023-07-31T13:27:17;1.00;;;0.90;;
6251;SDS011;3159;52.414;9.784;2023-07-31T13:29:46;1.07;;;0.70;;
6251;SDS011;3159;52.414;9.784;2023-07-31T13:32:13;0.97;;;0.70;;
6251;SDS011;3159;52.414;9.784;2023-07-31T13:34:40;0.80;;;0.80;;
6251;SDS011;3159;52.414;9.784;2023-07-31T13:37:08;2.00;;;0.63;;
6251;SDS011;3159;52.414;9.784;2023-07-31T13:39:35;1.40;;;0.70;;
6251;SDS011;3159;52.414;9.784;2023-07-31T13:42:03;0.80;;;0.80;;
6251;SDS011;3159;52.414;9.784;2023-07-31T13:44:31;1.00;;;0.90;;
6251;SDS011;3159;52.414;9.784;2023-07-31T13:46:58;1.07;;;0.80;;
6251;SDS011;3159;52.414;9.784;2023-07-31T13:49:25;1.50;;;0.90;;
6251;SDS011;3159;52.414;9.784;2023-07-31T13:51:52;0.87;;;0.80;;
6251;SDS011;3159;52.414;9.784;2023-07-31T13:54:21;1.20;;;0.90;;
6251;SDS011;3159;52.414;9.784;2023-07-31T13:56:48;0.77;;;0.70;;
6251;SDS011;3159;52.414;9.784;2023-07-31T13:59:16;2.10;;;0.90;;
6251;SDS011;3159;52.414;9.784;2023-07-31T14:01:43;1.27;;;0.70;;
6251;SDS011;3159;52.414;9.784;2023-07-31T14:04:10;0.73;;;0.73;;
6251;SDS011;3159;52.414;9.784;2023-07-31T14:06:37;1.83;;;1.03;;
6251;SDS011;3159;52.414;9.784;2023-07-31T14:09:04;0.60;;;0.60;;
6251;SDS011;3159;52.414;9.784;2023-07-31T14:11:33;1.13;;;0.80;;
6251;SDS011;3159;52.414;9.784;2023-07-31T14:14:00;0.73;;;0.73;;
6251;SDS011;3159;52.414;9.784;2023-07-31T14:16:28;2.07;;;0.60;;
6251;SDS011;3159;52.414;9.784;2023-07-31T14:18:54;1.60;;;0.80;;
6251;SDS011;3159;52.414;9.784;2023-07-31T14:21:24;0.60;;;0.60;;
6251;SDS011;3159;52.414;9.784;2023-07-31T14:23:51;2.23;;;0.80;;
6251;SDS011;3159;52.414;9.784;2023-07-31T14:26:18;0.87;;;0.70;;
6251;SDS011;3159;52.414;9.784;2023-07-31T14:28:46;1.00;;;0.90;;
6251;SDS011;3159;52.414;9.784;2023-07-31T14:31:13;1.13;;;0.70;;
6251;SDS011;3159;52.414;9.784;2023-07-31T14:33:40;0.60;;;0.57;;
6251;SDS011;3159;52.414;9.784;2023-07-31T14:36:07;0.77;;;0.77;;
6251;SDS011;3159;52.414;9.784;2023-07-31T14:38:34;1.00;;;0.90;;
6251;SDS011;3159;52.414;9.784;2023-07-31T14:41:01;1.77;;;0.93;;
6251;SDS011;3159;52.414;9.784;2023-07-31T14:43:28;1.37;;;1.27;;
6251;SDS011;3159;52.414;9.784;2023-07-31T14:45:56;1.80;;;1.70;;
6251;SDS011;3159;52.414;9.784;2023-07-31T14:48:24;3.97;;;1.93;;
6251;SDS011;3159;52.414;9.784;2023-07-31T14:50:51;6.07;;;5.50;;
6251;SDS011;3159;52.414;9.784;2023-07-31T14:53:18;4.17;;;3.57;;
6251;SDS011;3159;52.414;9.784;2023-07-31T14:55:45;3.57;;;2.60;;
6251;SDS011;3159;52.414;9.784;2023-07-31T14:58:12;2.10;;;1.87;;
6251;SDS011;3159;52.414;9.784;2023-07-31T15:00:39;4.03;;;2.17;;
6251;SDS011;3159;52.414;9.784;2023-07-31T15:03:08;2.70;;;2.10;;
6251;SDS011;3159;52.414;9.784;2023-07-31T15:05:34;3.03;;;2.20;;
6251;SDS011;3159;52.414;9.784;2023-07-31T15:08:01;3.93;;;1.93;;
6251;SDS011;3159;52.414;9.784;2023-07-31T15:10:28;2.63;;;2.00;;
6251;SDS011;3159;52.414;9.784;2023-07-31T15:12:55;4.17;;;2.63;;
6251;SDS011;3159;52.414;9.784;2023-07-31T15:15:22;4.37;;;2.63;;
6251;SDS011;3159;52.414;9.784;2023-07-31T15:17:49;2.50;;;2.30;;